sensor_id;sensor_type;location;lat;lon;timestamp;P1;durP1;ratioP1;P2;durP2;ratioP2
32108;SDS011;18624;50.042;8.436;2024-02-21T00:00:02;17.67;;;8.65;;
32108;SDS011;18624;50.042;8.436;2024-02-21T00:02:29;18.58;;;8.45;;
32108;SDS011;18624;50.042;8.436;2024-02-21T00:04:55;22.90;;;9.68;;
32108;SDS011;18624;50.042;8.436;2024-02-21T00:07:22;20.58;;;9.30;;
32108;SDS011;18624;50.042;8.436;2024-02-21T00:09:49;19.67;;;9.48;;
32108;SDS011;18624;50.042;8.436;2024-02-21T00:12:15;21.48;;;9.20;;
32108;SDS011;18624;50.042;8.436;2024-02-21T00:14:42;19.40;;;10.00;;
32108;SDS011;18624;50.042;8.436;2024-02-21T00:17:08;22.42;;;9.82;;
32108;SDS011;18624;50.042;8.436;2024-02-21T00:19:35;16.83;;;8.25;;
32108;SDS011;18624;50.042;8.436;2024-02-21T00:22:02;19.13;;;9.20;;
32108;SDS011;18624;50.042;8.436;2024-02-21T00:24:28;19.65;;;9.75;;
32108;SDS011;18624;50.042;8.436;2024-02-21T00:26:54;16.60;;;8.98;;
32108;SDS011;18624;50.042;8.436;2024-02-21T00:29:21;18.50;;;9.70;;
32108;SDS011;18624;50.042;8.436;2024-02-21T00:31:48;20.35;;;10.57;;
32108;SDS011;18624;50.042;8.436;2024-02-21T00:34:15;22.05;;;9.82;;
32108;SDS011;18624;50.042;8.436;2024-02-21T00:36:42;26.15;;;10.95;;
32108;SDS011;18624;50.042;8.436;2024-02-21T00:39:08;21.23;;;9.30;;
32108;SDS011;18624;50.042;8.436;2024-02-21T00:41:35;21.08;;;9.10;;
32108;SDS011;18624;50.042;8.436;2024-02-21T00:44:01;27.33;;;10.60;;
32108;SDS011;18624;50.042;8.436;2024-02-21T00:46:28;18.95;;;9.77;;
32108;SDS011;18624;50.042;8.436;2024-02-21T00:48:54;22.38;;;9.93;;
32108;SDS011;18624;50.042;8.436;2024-02-21T00:51:21;21.67;;;11.35;;
32108;SDS011;18624;50.042;8.436;2024-02-21T00:53:47;25.77;;;11.60;;
32108;SDS011;18624;50.042;8.436;2024-02-21T00:56:14;18.40;;;10.45;;
32108;SDS011;18624;50.042;8.436;2024-02-21T00:58:40;22.13;;;9.80;;
32108;SDS011;18624;50.042;8.436;2024-02-21T01:01:07;19.55;;;9.25;;
32108;SDS011;18624;50.042;8.436;2024-02-21T01:03:33;22.08;;;10.32;;
32108;SDS011;18624;50.042;8.436;2024-02-21T01:06:00;18.92;;;10.02;;
32108;SDS011;18624;50.042;8.436;2024-02-21T01:08:26;23.83;;;10.60;;
32108;SDS011;18624;50.042;8.436;2024-02-21T01:10:53;19.25;;;10.40;;
32108;SDS011;18624;50.042;8.436;2024-02-21T01:13:19;20.27;;;11.18;;
32108;SDS011;18624;50.042;8.436;2024-02-21T01:15:46;20.88;;;10.60;;
32108;SDS011;18624;50.042;8.436;2024-02-21T01:18:12;20.40;;;10.02;;
32108;SDS011;18624;50.042;8.436;2024-02-21T01:20:39;20.88;;;10.90;;
32108;SDS011;18624;50.042;8.436;2024-02-21T01:23:05;17.92;;;8.60;;
32108;SDS011;18624;50.042;8.436;2024-02-21T01:25:32;19.45;;;10.63;;
32108;SDS011;18624;50.042;8.436;2024-02-21T01:27:58;18.73;;;9.57;;
32108;SDS011;18624;50.042;8.436;2024-02-21T01:30:25;18.25;;;10.15;;
32108;SDS011;18624;50.042;8.436;2024-02-21T01:32:51;19.33;;;9.30;;
32108;SDS011;18624;50.042;8.436;2024-02-21T01:35:18;24.58;;;10.15;;
32108;SDS011;18624;50.042;8.436;2024-02-21T01:37:44;23.23;;;10.07;;
32108;SDS011;18624;50.042;8.436;2024-02-21T01:40:11;20.42;;;9.85;;
32108;SDS011;18624;50.042;8.436;2024-02-21T01:42:38;23.15;;;10.85;;
32108;SDS011;18624;50.042;8.436;2024-02-21T01:45:07;17.65;;;8.65;;
32108;SDS011;18624;50.042;8.436;2024-02-21T01:47:33;21.50;;;9.98;;
32108;SDS011;18624;50.042;8.436;2024-02-21T01:50:01;18.10;;;9.52;;
32108;SDS011;18624;50.042;8.436;2024-02-21T01:52:29;17.55;;;8.20;;
32108;SDS011;18624;50.042;8.436;2024-02-21T01:54:57;20.90;;;10.55;;
32108;SDS011;18624;50.042;8.436;2024-02-21T01:57:24;21.13;;;10.52;;
32108;SDS011;18624;50.042;8.436;2024-02-21T01:59:50;21.48;;;9.80;;
32108;SDS011;18624;50.042;8.436;2024-02-21T02:02:18;18.63;;;9.13;;
32108;SDS011;18624;50.042;8.436;2024-02-21T02:04:45;20.77;;;9.95;;
32108;SDS011;18624;50.042;8.436;2024-02-21T02:07:12;18.77;;;8.98;;
32108;SDS011;18624;50.042;8.436;2024-02-21T02:09:38;18.17;;;8.38;;
32108;SDS011;18624;50.042;8.436;2024-02-21T02:12:05;21.33;;;8.75;;
32108;SDS011;18624;50.042;8.436;2024-02-21T02:14:31;19.25;;;8.98;;
32108;SDS011;18624;50.042;8.436;2024-02-21T02:16:58;22.15;;;9.82;;
32108;SDS011;18624;50.042;8.436;2024-02-21T02:19:24;20.17;;;9.73;;
32108;SDS011;18624;50.042;8.436;2024-02-21T02:21:53;20.90;;;9.80;;
32108;SDS011;18624;50.042;8.436;2024-02-21T02:24:24;18.88;;;9.38;;
32108;SDS011;18624;50.042;8.436;2024-02-21T02:26:53;20.40;;;8.95;;
32108;SDS011;18624;50.042;8.436;2024-02-21T02:29:20;18.13;;;10.38;;
32108;SDS011;18624;50.042;8.436;2024-02-21T02:31:46;18.63;;;8.80;;
32108;SDS011;18624;50.042;8.436;2024-02-21T02:34:13;19.92;;;9.93;;
32108;SDS011;18624;50.042;8.436;2024-02-21T02:36:39;16.95;;;8.95;;
32108;SDS011;18624;50.042;8.436;2024-02-21T02:39:06;20.60;;;8.52;;
32108;SDS011;18624;50.042;8.436;2024-02-21T02:41:34;16.77;;;7.78;;
32108;SDS011;18624;50.042;8.436;2024-02-21T02:44:01;20.90;;;9.43;;
32108;SDS011;18624;50.042;8.436;2024-02-21T02:46:28;20.27;;;9.25;;
32108;SDS011;18624;50.042;8.436;2024-02-21T02:48:55;16.85;;;9.05;;
32108;SDS011;18624;50.042;8.436;2024-02-21T02:51:21;16.13;;;8.93;;
32108;SDS011;18624;50.042;8.436;2024-02-21T02:53:48;20.58;;;8.10;;
32108;SDS011;18624;50.042;8.436;2024-02-21T02:56:15;16.80;;;8.75;;
32108;SDS011;18624;50.042;8.436;2024-02-21T02:58:42;14.40;;;7.55;;
32108;SDS011;18624;50.042;8.436;2024-02-21T03:01:09;18.30;;;8.95;;
32108;SDS011;18624;50.042;8.436;2024-02-21T03:03:35;16.88;;;8.02;;
32108;SDS011;18624;50.042;8.436;2024-02-21T03:06:02;18.00;;;8.30;;
32108;SDS011;18624;50.042;8.436;2024-02-21T03:08:29;21.70;;;8.25;;
32108;SDS011;18624;50.042;8.436;2024-02-21T03:10:55;17.05;;;7.97;;
32108;SDS011;18624;50.042;8.436;2024-02-21T03:13:22;18.08;;;8.02;;
32108;SDS011;18624;50.042;8.436;2024-02-21T03:15:48;19.95;;;9.20;;
32108;SDS011;18624;50.042;8.436;2024-02-21T03:18:14;17.70;;;8.60;;
32108;SDS011;18624;50.042;8.436;2024-02-21T03:20:41;17.33;;;9.40;;
32108;SDS011;18624;50.042;8.436;2024-02-21T03:23:07;20.52;;;10.18;;
32108;SDS011;18624;50.042;8.436;2024-02-21T03:25:34;16.27;;;9.45;;
32108;SDS011;18624;50.042;8.436;2024-02-21T03:28:00;24.48;;;11.32;;
32108;SDS011;18624;50.042;8.436;2024-02-21T03:30:28;20.88;;;11.55;;
32108;SDS011;18624;50.042;8.436;2024-02-21T03:32:54;18.02;;;10.02;;
32108;SDS011;18624;50.042;8.436;2024-02-21T03:35:20;19.88;;;9.95;;
32108;SDS011;18624;50.042;8.436;2024-02-21T03:37:47;21.05;;;10.07;;
32108;SDS011;18624;50.042;8.436;2024-02-21T03:40:13;24.20;;;10.75;;
32108;SDS011;18624;50.042;8.436;2024-02-21T03:42:40;23.45;;;10.55;;
32108;SDS011;18624;50.042;8.436;2024-02-21T03:45:06;16.98;;;9.50;;
32108;SDS011;18624;50.042;8.436;2024-02-21T03:47:33;21.25;;;10.23;;
32108;SDS011;18624;50.042;8.436;2024-02-21T03:50:00;23.67;;;11.00;;
32108;SDS011;18624;50.042;8.436;2024-02-21T03:52:27;21.70;;;11.35;;
32108;SDS011;18624;50.042;8.436;2024-02-21T03:54:53;18.92;;;10.52;;
32108;SDS011;18624;50.042;8.436;2024-02-21T03:57:21;21.05;;;9.77;;
32108;SDS011;18624;50.042;8.436;2024-02-21T03:59:50;20.35;;;10.63;;
32108;SDS011;18624;50.042;8.436;2024-02-21T04:02:17;21.60;;;10.68;;
32108;SDS011;18624;50.042;8.436;2024-02-21T04:04:44;19.65;;;10.68;;
32108;SDS011;18624;50.042;8.436;2024-02-21T04:07:14;22.67;;;10.63;;
32108;SDS011;18624;50.042;8.436;2024-02-21T04:09:41;18.73;;;10.32;;
32108;SDS011;18624;50.042;8.436;2024-02-21T04:12:08;23.17;;;11.68;;
32108;SDS011;18624;50.042;8.436;2024-02-21T04:14:34;27.38;;;12.43;;
32108;SDS011;18624;50.042;8.436;2024-02-21T04:17:01;20.40;;;10.23;;
32108;SDS011;18624;50.042;8.436;2024-02-21T04:19:28;24.02;;;11.35;;
32108;SDS011;18624;50.042;8.436;2024-02-21T04:21:54;20.92;;;10.90;;
32108;SDS011;18624;50.042;8.436;2024-02-21T04:24:21;22.83;;;11.15;;
32108;SDS011;18624;50.042;8.436;2024-02-21T04:26:47;20.92;;;11.55;;
32108;SDS011;18624;50.042;8.436;2024-02-21T04:29:14;21.95;;;10.20;;
32108;SDS011;18624;50.042;8.436;2024-02-21T04:31:40;22.27;;;12.02;;
32108;SDS011;18624;50.042;8.436;2024-02-21T04:34:07;21.77;;;11.13;;
32108;SDS011;18624;50.042;8.436;2024-02-21T04:36:33;20.40;;;11.85;;
32108;SDS011;18624;50.042;8.436;2024-02-21T04:39:00;22.98;;;12.23;;
32108;SDS011;18624;50.042;8.436;2024-02-21T04:41:26;18.20;;;10.68;;
32108;SDS011;18624;50.042;8.436;2024-02-21T04:43:53;23.60;;;11.85;;
32108;SDS011;18624;50.042;8.436;2024-02-21T04:46:19;19.27;;;11.52;;
32108;SDS011;18624;50.042;8.436;2024-02-21T04:48:46;20.48;;;11.05;;
32108;SDS011;18624;50.042;8.436;2024-02-21T04:51:12;25.73;;;13.45;;
32108;SDS011;18624;50.042;8.436;2024-02-21T04:53:39;27.02;;;12.73;;
32108;SDS011;18624;50.042;8.436;2024-02-21T04:56:06;22.85;;;11.45;;
32108;SDS011;18624;50.042;8.436;2024-02-21T04:58:32;25.10;;;11.82;;
32108;SDS011;18624;50.042;8.436;2024-02-21T05:00:59;20.63;;;10.80;;
32108;SDS011;18624;50.042;8.436;2024-02-21T05:03:25;20.83;;;10.48;;
32108;SDS011;18624;50.042;8.436;2024-02-21T05:05:52;21.48;;;11.15;;
32108;SDS011;18624;50.042;8.436;2024-02-21T05:08:19;23.52;;;10.85;;
32108;SDS011;18624;50.042;8.436;2024-02-21T05:10:45;20.95;;;10.63;;
32108;SDS011;18624;50.042;8.436;2024-02-21T05:13:12;16.85;;;10.55;;
32108;SDS011;18624;50.042;8.436;2024-02-21T05:15:38;21.02;;;9.95;;
32108;SDS011;18624;50.042;8.436;2024-02-21T05:18:05;19.95;;;10.43;;
32108;SDS011;18624;50.042;8.436;2024-02-21T05:20:31;17.30;;;10.38;;
32108;SDS011;18624;50.042;8.436;2024-02-21T05:22:58;21.63;;;10.60;;
32108;SDS011;18624;50.042;8.436;2024-02-21T05:25:24;22.85;;;9.95;;
32108;SDS011;18624;50.042;8.436;2024-02-21T05:27:51;21.00;;;10.55;;
32108;SDS011;18624;50.042;8.436;2024-02-21T05:30:19;17.88;;;9.75;;
32108;SDS011;18624;50.042;8.436;2024-02-21T05:32:46;21.02;;;9.93;;
32108;SDS011;18624;50.042;8.436;2024-02-21T05:35:13;17.13;;;8.82;;
32108;SDS011;18624;50.042;8.436;2024-02-21T05:37:39;16.75;;;9.75;;
32108;SDS011;18624;50.042;8.436;2024-02-21T05:40:06;21.88;;;10.32;;
32108;SDS011;18624;50.042;8.436;2024-02-21T05:42:33;16.08;;;9.52;;
32108;SDS011;18624;50.042;8.436;2024-02-21T05:44:59;16.23;;;9.60;;
32108;SDS011;18624;50.042;8.436;2024-02-21T05:47:25;25.10;;;11.10;;
32108;SDS011;18624;50.042;8.436;2024-02-21T05:49:52;19.70;;;10.45;;
32108;SDS011;18624;50.042;8.436;2024-02-21T05:52:20;18.88;;;9.25;;
32108;SDS011;18624;50.042;8.436;2024-02-21T05:54:47;20.15;;;10.38;;
32108;SDS011;18624;50.042;8.436;2024-02-21T05:57:17;21.85;;;11.13;;
32108;SDS011;18624;50.042;8.436;2024-02-21T05:59:44;18.83;;;10.48;;
32108;SDS011;18624;50.042;8.436;2024-02-21T06:02:10;20.85;;;11.05;;
32108;SDS011;18624;50.042;8.436;2024-02-21T06:04:37;18.50;;;11.02;;
32108;SDS011;18624;50.042;8.436;2024-02-21T06:07:03;21.40;;;10.77;;
32108;SDS011;18624;50.042;8.436;2024-02-21T06:09:30;20.63;;;10.80;;
32108;SDS011;18624;50.042;8.436;2024-02-21T06:11:58;19.95;;;10.60;;
32108;SDS011;18624;50.042;8.436;2024-02-21T06:14:24;18.63;;;10.48;;
32108;SDS011;18624;50.042;8.436;2024-02-21T06:16:50;23.40;;;10.75;;
32108;SDS011;18624;50.042;8.436;2024-02-21T06:19:17;21.50;;;12.48;;
32108;SDS011;18624;50.042;8.436;2024-02-21T06:21:43;21.08;;;11.43;;
32108;SDS011;18624;50.042;8.436;2024-02-21T06:24:10;20.27;;;10.75;;
32108;SDS011;18624;50.042;8.436;2024-02-21T06:26:39;18.70;;;10.30;;
32108;SDS011;18624;50.042;8.436;2024-02-21T06:29:06;19.55;;;9.57;;
32108;SDS011;18624;50.042;8.436;2024-02-21T06:31:32;22.92;;;12.75;;
32108;SDS011;18624;50.042;8.436;2024-02-21T06:34:01;20.45;;;11.38;;
32108;SDS011;18624;50.042;8.436;2024-02-21T06:36:27;19.02;;;10.05;;
32108;SDS011;18624;50.042;8.436;2024-02-21T06:38:54;18.60;;;9.82;;
32108;SDS011;18624;50.042;8.436;2024-02-21T06:41:21;19.83;;;10.93;;
32108;SDS011;18624;50.042;8.436;2024-02-21T06:43:47;21.67;;;12.00;;
32108;SDS011;18624;50.042;8.436;2024-02-21T06:46:25;22.23;;;12.30;;
32108;SDS011;18624;50.042;8.436;2024-02-21T06:48:52;20.90;;;10.95;;
32108;SDS011;18624;50.042;8.436;2024-02-21T06:51:19;24.67;;;11.93;;
32108;SDS011;18624;50.042;8.436;2024-02-21T06:53:45;27.00;;;13.07;;
32108;SDS011;18624;50.042;8.436;2024-02-21T06:56:12;17.92;;;11.23;;
32108;SDS011;18624;50.042;8.436;2024-02-21T06:58:38;24.08;;;11.75;;
32108;SDS011;18624;50.042;8.436;2024-02-21T07:01:05;23.10;;;12.43;;
32108;SDS011;18624;50.042;8.436;2024-02-21T07:03:32;20.55;;;12.15;;
32108;SDS011;18624;50.042;8.436;2024-02-21T07:05:58;24.35;;;11.50;;
32108;SDS011;18624;50.042;8.436;2024-02-21T07:08:25;20.48;;;12.02;;
32108;SDS011;18624;50.042;8.436;2024-02-21T07:10:52;21.88;;;11.75;;
32108;SDS011;18624;50.042;8.436;2024-02-21T07:13:19;14.18;;;8.88;;
32108;SDS011;18624;50.042;8.436;2024-02-21T07:15:47;23.52;;;12.48;;
32108;SDS011;18624;50.042;8.436;2024-02-21T07:18:14;22.13;;;11.90;;
32108;SDS011;18624;50.042;8.436;2024-02-21T07:20:41;26.17;;;13.55;;
32108;SDS011;18624;50.042;8.436;2024-02-21T07:23:10;26.13;;;12.70;;
32108;SDS011;18624;50.042;8.436;2024-02-21T07:25:36;22.45;;;12.45;;
32108;SDS011;18624;50.042;8.436;2024-02-21T07:28:03;25.90;;;12.32;;
32108;SDS011;18624;50.042;8.436;2024-02-21T07:30:30;26.35;;;12.05;;
32108;SDS011;18624;50.042;8.436;2024-02-21T07:32:56;20.08;;;10.90;;
32108;SDS011;18624;50.042;8.436;2024-02-21T07:35:23;23.73;;;11.55;;
32108;SDS011;18624;50.042;8.436;2024-02-21T07:37:49;18.58;;;9.80;;
32108;SDS011;18624;50.042;8.436;2024-02-21T07:40:16;22.13;;;10.52;;
32108;SDS011;18624;50.042;8.436;2024-02-21T07:42:43;19.88;;;10.20;;
32108;SDS011;18624;50.042;8.436;2024-02-21T07:45:16;21.27;;;10.82;;
32108;SDS011;18624;50.042;8.436;2024-02-21T07:47:44;22.40;;;11.77;;
32108;SDS011;18624;50.042;8.436;2024-02-21T07:50:10;22.25;;;11.05;;
32108;SDS011;18624;50.042;8.436;2024-02-21T07:52:37;23.98;;;11.27;;
32108;SDS011;18624;50.042;8.436;2024-02-21T07:55:03;22.85;;;10.80;;
32108;SDS011;18624;50.042;8.436;2024-02-21T07:57:30;19.30;;;10.32;;
32108;SDS011;18624;50.042;8.436;2024-02-21T07:59:57;23.60;;;11.52;;
32108;SDS011;18624;50.042;8.436;2024-02-21T08:02:23;21.77;;;10.93;;
32108;SDS011;18624;50.042;8.436;2024-02-21T08:04:49;20.27;;;10.35;;
32108;SDS011;18624;50.042;8.436;2024-02-21T08:07:16;22.10;;;10.15;;
32108;SDS011;18624;50.042;8.436;2024-02-21T08:09:42;19.67;;;9.90;;
32108;SDS011;18624;50.042;8.436;2024-02-21T08:12:09;19.98;;;10.52;;
32108;SDS011;18624;50.042;8.436;2024-02-21T08:14:35;21.73;;;10.60;;
32108;SDS011;18624;50.042;8.436;2024-02-21T08:17:02;21.42;;;10.38;;
32108;SDS011;18624;50.042;8.436;2024-02-21T08:19:30;23.60;;;10.07;;
32108;SDS011;18624;50.042;8.436;2024-02-21T08:21:57;15.85;;;8.70;;
32108;SDS011;18624;50.042;8.436;2024-02-21T08:24:23;19.13;;;9.27;;
32108;SDS011;18624;50.042;8.436;2024-02-21T08:26:50;21.25;;;9.23;;
32108;SDS011;18624;50.042;8.436;2024-02-21T08:29:16;15.45;;;8.27;;
32108;SDS011;18624;50.042;8.436;2024-02-21T08:31:43;21.38;;;9.13;;
32108;SDS011;18624;50.042;8.436;2024-02-21T08:34:09;18.13;;;9.18;;
32108;SDS011;18624;50.042;8.436;2024-02-21T08:36:36;18.75;;;8.77;;
32108;SDS011;18624;50.042;8.436;2024-02-21T08:39:03;23.13;;;9.90;;
32108;SDS011;18624;50.042;8.436;2024-02-21T08:41:31;18.80;;;8.65;;
32108;SDS011;18624;50.042;8.436;2024-02-21T08:44:17;19.48;;;9.02;;
32108;SDS011;18624;50.042;8.436;2024-02-21T08:46:43;16.98;;;8.75;;
32108;SDS011;18624;50.042;8.436;2024-02-21T08:49:10;18.95;;;8.80;;
32108;SDS011;18624;50.042;8.436;2024-02-21T08:51:37;15.50;;;8.60;;
32108;SDS011;18624;50.042;8.436;2024-02-21T08:54:03;19.90;;;8.40;;
32108;SDS011;18624;50.042;8.436;2024-02-21T08:56:30;18.83;;;8.45;;
32108;SDS011;18624;50.042;8.436;2024-02-21T08:58:57;18.30;;;8.40;;
32108;SDS011;18624;50.042;8.436;2024-02-21T09:01:25;22.08;;;8.88;;
32108;SDS011;18624;50.042;8.436;2024-02-21T09:03:53;18.80;;;8.07;;
32108;SDS011;18624;50.042;8.436;2024-02-21T09:06:20;21.00;;;8.48;;
32108;SDS011;18624;50.042;8.436;2024-02-21T09:08:46;21.35;;;8.88;;
32108;SDS011;18624;50.042;8.436;2024-02-21T09:11:13;19.35;;;8.32;;
32108;SDS011;18624;50.042;8.436;2024-02-21T09:13:40;16.48;;;9.00;;
32108;SDS011;18624;50.042;8.436;2024-02-21T09:16:06;17.50;;;7.57;;
32108;SDS011;18624;50.042;8.436;2024-02-21T09:18:33;15.80;;;8.18;;
32108;SDS011;18624;50.042;8.436;2024-02-21T09:20:59;16.95;;;8.13;;
32108;SDS011;18624;50.042;8.436;2024-02-21T09:23:26;18.92;;;8.10;;
32108;SDS011;18624;50.042;8.436;2024-02-21T09:25:53;20.02;;;7.63;;
32108;SDS011;18624;50.042;8.436;2024-02-21T09:28:21;18.70;;;9.18;;
32108;SDS011;18624;50.042;8.436;2024-02-21T09:30:48;19.45;;;7.90;;
32108;SDS011;18624;50.042;8.436;2024-02-21T09:33:15;19.10;;;8.45;;
32108;SDS011;18624;50.042;8.436;2024-02-21T09:35:57;19.55;;;8.05;;
32108;SDS011;18624;50.042;8.436;2024-02-21T09:38:23;20.30;;;8.98;;
32108;SDS011;18624;50.042;8.436;2024-02-21T09:40:55;23.60;;;8.45;;
32108;SDS011;18624;50.042;8.436;2024-02-21T09:43:26;17.50;;;8.55;;
32108;SDS011;18624;50.042;8.436;2024-02-21T09:45:54;17.13;;;8.30;;
32108;SDS011;18624;50.042;8.436;2024-02-21T09:51:07;18.88;;;7.80;;
32108;SDS011;18624;50.042;8.436;2024-02-21T09:53:37;19.33;;;8.45;;
32108;SDS011;18624;50.042;8.436;2024-02-21T09:56:05;16.90;;;8.07;;
32108;SDS011;18624;50.042;8.436;2024-02-21T09:58:35;19.30;;;8.82;;
32108;SDS011;18624;50.042;8.436;2024-02-21T10:01:03;21.38;;;9.02;;
32108;SDS011;18624;50.042;8.436;2024-02-21T10:03:46;21.05;;;8.60;;
32108;SDS011;18624;50.042;8.436;2024-02-21T10:06:13;19.92;;;8.90;;
32108;SDS011;18624;50.042;8.436;2024-02-21T10:08:39;16.23;;;8.23;;
32108;SDS011;18624;50.042;8.436;2024-02-21T10:11:06;22.23;;;8.80;;
32108;SDS011;18624;50.042;8.436;2024-02-21T10:13:35;20.35;;;8.52;;
32108;SDS011;18624;50.042;8.436;2024-02-21T10:16:02;20.45;;;8.60;;
32108;SDS011;18624;50.042;8.436;2024-02-21T10:18:35;17.42;;;6.80;;
32108;SDS011;18624;50.042;8.436;2024-02-21T10:21:06;20.23;;;7.82;;
32108;SDS011;18624;50.042;8.436;2024-02-21T10:23:44;19.02;;;8.32;;
32108;SDS011;18624;50.042;8.436;2024-02-21T10:26:11;18.90;;;9.15;;
32108;SDS011;18624;50.042;8.436;2024-02-21T10:28:39;16.83;;;7.53;;
32108;SDS011;18624;50.042;8.436;2024-02-21T10:31:11;18.23;;;8.40;;
32108;SDS011;18624;50.042;8.436;2024-02-21T10:33:53;17.75;;;8.32;;
32108;SDS011;18624;50.042;8.436;2024-02-21T10:36:29;13.63;;;7.35;;
32108;SDS011;18624;50.042;8.436;2024-02-21T10:38:56;13.75;;;6.82;;
32108;SDS011;18624;50.042;8.436;2024-02-21T10:41:23;18.83;;;8.45;;
32108;SDS011;18624;50.042;8.436;2024-02-21T10:43:51;19.65;;;8.35;;
32108;SDS011;18624;50.042;8.436;2024-02-21T10:46:21;18.90;;;8.25;;
32108;SDS011;18624;50.042;8.436;2024-02-21T10:49:02;18.25;;;7.90;;
32108;SDS011;18624;50.042;8.436;2024-02-21T10:51:33;18.48;;;8.02;;
32108;SDS011;18624;50.042;8.436;2024-02-21T10:54:25;18.90;;;8.00;;
32108;SDS011;18624;50.042;8.436;2024-02-21T10:57:01;20.63;;;9.48;;
32108;SDS011;18624;50.042;8.436;2024-02-21T10:59:30;17.13;;;8.15;;
32108;SDS011;18624;50.042;8.436;2024-02-21T11:01:58;15.63;;;8.20;;
32108;SDS011;18624;50.042;8.436;2024-02-21T11:04:25;16.90;;;7.07;;
32108;SDS011;18624;50.042;8.436;2024-02-21T11:06:53;18.25;;;9.30;;
32108;SDS011;18624;50.042;8.436;2024-02-21T11:09:29;12.10;;;7.18;;
32108;SDS011;18624;50.042;8.436;2024-02-21T11:11:58;16.92;;;8.77;;
32108;SDS011;18624;50.042;8.436;2024-02-21T11:14:26;21.25;;;8.32;;
32108;SDS011;18624;50.042;8.436;2024-02-21T11:16:54;14.85;;;7.47;;
32108;SDS011;18624;50.042;8.436;2024-02-21T11:19:22;22.00;;;8.20;;
32108;SDS011;18624;50.042;8.436;2024-02-21T11:21:52;18.55;;;8.40;;
32108;SDS011;18624;50.042;8.436;2024-02-21T11:24:26;13.18;;;7.07;;
32108;SDS011;18624;50.042;8.436;2024-02-21T11:26:56;15.60;;;7.32;;
32108;SDS011;18624;50.042;8.436;2024-02-21T11:29:33;16.25;;;7.10;;
32108;SDS011;18624;50.042;8.436;2024-02-21T11:32:09;16.23;;;7.65;;
32108;SDS011;18624;50.042;8.436;2024-02-21T11:34:36;17.50;;;7.13;;
32108;SDS011;18624;50.042;8.436;2024-02-21T11:37:02;9.32;;;3.45;;
32108;SDS011;18624;50.042;8.436;2024-02-21T11:39:40;16.08;;;6.95;;
32108;SDS011;18624;50.042;8.436;2024-02-21T11:42:07;20.52;;;7.72;;
32108;SDS011;18624;50.042;8.436;2024-02-21T11:44:38;17.98;;;7.03;;
32108;SDS011;18624;50.042;8.436;2024-02-21T11:47:06;16.17;;;8.60;;
32108;SDS011;18624;50.042;8.436;2024-02-21T11:49:37;14.27;;;6.78;;
32108;SDS011;18624;50.042;8.436;2024-02-21T11:52:05;15.85;;;7.22;;
32108;SDS011;18624;50.042;8.436;2024-02-21T11:54:33;12.27;;;6.20;;
32108;SDS011;18624;50.042;8.436;2024-02-21T11:57:00;16.65;;;7.60;;
32108;SDS011;18624;50.042;8.436;2024-02-21T11:59:29;16.33;;;7.50;;
32108;SDS011;18624;50.042;8.436;2024-02-21T12:01:58;16.20;;;6.97;;
32108;SDS011;18624;50.042;8.436;2024-02-21T12:04:29;14.70;;;8.30;;
32108;SDS011;18624;50.042;8.436;2024-02-21T12:06:59;15.38;;;7.22;;
32108;SDS011;18624;50.042;8.436;2024-02-21T12:09:26;17.45;;;7.25;;
32108;SDS011;18624;50.042;8.436;2024-02-21T12:11:59;15.35;;;7.18;;
32108;SDS011;18624;50.042;8.436;2024-02-21T12:14:28;19.15;;;6.82;;
32108;SDS011;18624;50.042;8.436;2024-02-21T12:16:56;17.55;;;8.30;;
32108;SDS011;18624;50.042;8.436;2024-02-21T12:19:23;17.60;;;6.57;;
32108;SDS011;18624;50.042;8.436;2024-02-21T12:21:49;16.80;;;7.53;;
32108;SDS011;18624;50.042;8.436;2024-02-21T12:26:52;15.88;;;6.32;;
32108;SDS011;18624;50.042;8.436;2024-02-21T12:29:20;13.65;;;6.78;;
32108;SDS011;18624;50.042;8.436;2024-02-21T12:31:47;18.50;;;7.32;;
32108;SDS011;18624;50.042;8.436;2024-02-21T12:34:14;21.05;;;8.20;;
32108;SDS011;18624;50.042;8.436;2024-02-21T12:36:45;16.52;;;7.22;;
32108;SDS011;18624;50.042;8.436;2024-02-21T12:39:15;14.18;;;6.93;;
32108;SDS011;18624;50.042;8.436;2024-02-21T12:41:42;10.57;;;3.83;;
32108;SDS011;18624;50.042;8.436;2024-02-21T12:44:10;15.57;;;7.53;;
32108;SDS011;18624;50.042;8.436;2024-02-21T12:46:37;15.32;;;6.43;;
32108;SDS011;18624;50.042;8.436;2024-02-21T12:49:06;17.63;;;7.68;;
32108;SDS011;18624;50.042;8.436;2024-02-21T12:51:34;21.52;;;8.98;;
32108;SDS011;18624;50.042;8.436;2024-02-21T12:54:01;14.23;;;6.95;;
32108;SDS011;18624;50.042;8.436;2024-02-21T12:56:29;18.10;;;8.77;;
32108;SDS011;18624;50.042;8.436;2024-02-21T12:58:57;9.32;;;4.13;;
32108;SDS011;18624;50.042;8.436;2024-02-21T13:01:24;6.60;;;2.97;;
32108;SDS011;18624;50.042;8.436;2024-02-21T13:03:50;17.25;;;7.25;;
32108;SDS011;18624;50.042;8.436;2024-02-21T13:06:17;15.63;;;6.95;;
32108;SDS011;18624;50.042;8.436;2024-02-21T13:08:45;16.40;;;7.35;;
32108;SDS011;18624;50.042;8.436;2024-02-21T13:11:12;17.40;;;7.57;;
32108;SDS011;18624;50.042;8.436;2024-02-21T13:13:39;15.70;;;7.20;;
32108;SDS011;18624;50.042;8.436;2024-02-21T13:16:06;19.00;;;7.45;;
32108;SDS011;18624;50.042;8.436;2024-02-21T13:18:34;15.07;;;7.22;;
32108;SDS011;18624;50.042;8.436;2024-02-21T13:21:04;15.73;;;7.40;;
32108;SDS011;18624;50.042;8.436;2024-02-21T13:23:31;14.50;;;7.18;;
32108;SDS011;18624;50.042;8.436;2024-02-21T13:25:57;14.43;;;6.65;;
32108;SDS011;18624;50.042;8.436;2024-02-21T13:28:24;15.52;;;7.25;;
32108;SDS011;18624;50.042;8.436;2024-02-21T13:30:50;17.02;;;6.90;;
32108;SDS011;18624;50.042;8.436;2024-02-21T13:33:17;15.63;;;6.88;;
32108;SDS011;18624;50.042;8.436;2024-02-21T13:35:43;20.67;;;7.20;;
32108;SDS011;18624;50.042;8.436;2024-02-21T13:38:10;16.85;;;7.45;;
32108;SDS011;18624;50.042;8.436;2024-02-21T13:40:37;16.20;;;7.00;;
32108;SDS011;18624;50.042;8.436;2024-02-21T13:43:03;19.85;;;6.90;;
32108;SDS011;18624;50.042;8.436;2024-02-21T13:45:31;17.95;;;7.20;;
32108;SDS011;18624;50.042;8.436;2024-02-21T13:47:57;19.50;;;8.15;;
32108;SDS011;18624;50.042;8.436;2024-02-21T13:50:30;15.45;;;7.22;;
32108;SDS011;18624;50.042;8.436;2024-02-21T13:52:58;15.73;;;6.82;;
32108;SDS011;18624;50.042;8.436;2024-02-21T13:55:25;14.93;;;6.90;;
32108;SDS011;18624;50.042;8.436;2024-02-21T13:57:54;19.52;;;7.85;;
32108;SDS011;18624;50.042;8.436;2024-02-21T14:00:21;14.73;;;6.88;;
32108;SDS011;18624;50.042;8.436;2024-02-21T14:02:48;17.98;;;7.10;;
32108;SDS011;18624;50.042;8.436;2024-02-21T14:05:15;18.20;;;7.07;;
32108;SDS011;18624;50.042;8.436;2024-02-21T14:07:41;17.02;;;7.40;;
32108;SDS011;18624;50.042;8.436;2024-02-21T14:10:08;18.27;;;7.38;;
32108;SDS011;18624;50.042;8.436;2024-02-21T14:12:35;17.08;;;7.32;;
32108;SDS011;18624;50.042;8.436;2024-02-21T14:15:02;15.25;;;7.80;;
32108;SDS011;18624;50.042;8.436;2024-02-21T14:17:28;17.98;;;7.13;;
32108;SDS011;18624;50.042;8.436;2024-02-21T14:19:55;13.48;;;6.53;;
32108;SDS011;18624;50.042;8.436;2024-02-21T14:22:22;18.58;;;7.30;;
32108;SDS011;18624;50.042;8.436;2024-02-21T14:24:48;17.65;;;7.32;;
32108;SDS011;18624;50.042;8.436;2024-02-21T14:27:15;15.10;;;6.18;;
32108;SDS011;18624;50.042;8.436;2024-02-21T14:29:41;14.65;;;6.60;;
32108;SDS011;18624;50.042;8.436;2024-02-21T14:32:07;14.00;;;6.45;;
32108;SDS011;18624;50.042;8.436;2024-02-21T14:34:36;15.40;;;6.28;;
32108;SDS011;18624;50.042;8.436;2024-02-21T14:37:03;17.15;;;6.78;;